Time;durP1;ratioP1;P1;durP2;ratioP2;P2;SDS_P1;SDS_P2;PMS_P1;PMS_P2;Temp;Humidity;BMP_temperature;BMP_pressure;BME280_temperature;BME280_humidity;BME280_pressure;Samples;Min_cycle;Max_cycle;Signal;HPM_P1;HPM_P2
2022/03/20 00:00:53;;;;;;;18.92;13.10;;;4.10;99.90;;;;;;1842282;76;21421;-77
2022/03/20 00:03:23;;;;;;;23.87;13.75;;;4.20;99.90;;;;;;1805645;77;21077;-80
2022/03/20 00:05:52;;;;;;;17.00;12.95;;;4.10;99.90;;;;;;1868279;75;21538;-79
2022/03/20 00:08:19;;;;;;;24.72;12.68;;;4.10;99.90;;;;;;1864473;76;21232;-79
2022/03/20 00:10:48;;;;;;;17.65;11.33;;;4.10;99.90;;;;;;1855767;76;21047;-79
2022/03/20 00:13:19;;;;;;;22.55;12.68;;;4.10;99.90;;;;;;1835654;77;21476;-79
2022/03/20 00:15:52;;;;;;;17.27;11.60;;;4.10;99.90;;;;;;1828469;78;21100;-80
2022/03/20 00:18:26;;;;;;;19.37;12.25;;;4.10;99.90;;;;;;1829573;77;21516;-81
2022/03/20 00:20:54;;;;;;;20.65;12.73;;;4.10;99.90;;;;;;1848008;77;21113;-81
2022/03/20 00:23:23;;;;;;;23.05;12.88;;;4.10;99.90;;;;;;1849007;77;21076;-77
2022/03/20 00:25:50;;;;;;;22.25;12.73;;;4.10;99.90;;;;;;1844157;77;21167;-78
2022/03/20 00:28:20;;;;;;;20.35;13.25;;;4.10;99.90;;;;;;1833963;77;21158;-79
2022/03/20 00:30:51;;;;;;;22.55;13.85;;;4.10;99.90;;;;;;1835988;77;21092;-80
2022/03/20 00:33:18;;;;;;;22.48;13.28;;;4.10;99.90;;;;;;1830522;77;21090;-80
2022/03/20 00:35:46;;;;;;;20.57;13.18;;;4.10;99.90;;;;;;1836107;77;21146;-80
2022/03/20 00:38:16;;;;;;;20.57;12.53;;;4.20;99.90;;;;;;1836196;78;21091;-79
2022/03/20 00:40:43;;;;;;;25.25;12.70;;;4.20;99.90;;;;;;1828657;77;21115;-80
2022/03/20 00:43:13;;;;;;;19.10;12.33;;;4.20;99.90;;;;;;1852170;76;21176;-80
2022/03/20 00:45:40;;;;;;;27.62;12.82;;;4.30;99.90;;;;;;1858031;76;21095;-79
2022/03/20 00:48:10;;;;;;;24.18;13.55;;;4.20;99.90;;;;;;1850549;77;21051;-79
2022/03/20 00:50:37;;;;;;;20.95;13.78;;;4.20;99.90;;;;;;1848584;76;21145;-80
2022/03/20 00:53:06;;;;;;;18.00;12.70;;;4.20;99.90;;;;;;1850727;77;21456;-79
2022/03/20 00:55:34;;;;;;;22.00;13.78;;;4.20;99.90;;;;;;1832188;76;21181;-81
2022/03/20 00:58:03;;;;;;;26.80;13.93;;;4.20;99.90;;;;;;1856331;77;21116;-80
2022/03/20 01:00:34;;;;;;;21.12;13.83;;;4.20;99.90;;;;;;1832663;77;21133;-79
2022/03/20 01:03:04;;;;;;;18.92;13.03;;;4.20;99.90;;;;;;1854779;76;21087;-80
2022/03/20 01:05:31;;;;;;;22.55;13.03;;;4.20;99.90;;;;;;1853099;77;21063;-79
2022/03/20 01:08:00;;;;;;;17.80;13.30;;;4.20;99.90;;;;;;1854176;76;21162;-79
2022/03/20 01:10:27;;;;;;;24.72;13.68;;;4.20;99.90;;;;;;1848100;76;21087;-78
2022/03/20 01:12:56;;;;;;;21.45;13.95;;;4.30;99.90;;;;;;1835891;77;21261;-80
2022/03/20 01:15:24;;;;;;;29.10;13.32;;;4.20;99.90;;;;;;1854663;76;21107;-80
2022/03/20 01:17:52;;;;;;;19.65;13.95;;;4.20;99.90;;;;;;1846751;76;21103;-80
2022/03/20 01:20:19;;;;;;;21.90;14.20;;;4.20;99.90;;;;;;1848452;76;21216;-80
2022/03/20 01:22:46;;;;;;;21.93;13.65;;;4.20;99.90;;;;;;1856001;77;21455;-80
2022/03/20 01:25:14;;;;;;;23.67;14.90;;;4.20;99.90;;;;;;1852626;76;21075;-79
2022/03/20 01:27:42;;;;;;;21.90;15.08;;;4.20;99.90;;;;;;1859452;76;21165;-79
2022/03/20 01:30:11;;;;;;;23.73;14.20;;;4.20;99.90;;;;;;1855106;76;21490;-80
2022/03/20 01:32:39;;;;;;;25.15;14.68;;;4.20;99.90;;;;;;1854973;77;21148;-79
2022/03/20 01:35:10;;;;;;;24.07;15.40;;;4.20;99.90;;;;;;1854666;76;21169;-80
2022/03/20 01:37:40;;;;;;;22.80;14.23;;;4.20;99.90;;;;;;1858866;76;21467;-80
2022/03/20 01:40:09;;;;;;;22.67;14.60;;;4.20;99.90;;;;;;1850672;76;21186;-79
2022/03/20 01:42:41;;;;;;;21.03;14.10;;;4.20;99.90;;;;;;1854366;76;21106;-79
2022/03/20 01:45:22;;;;;;;25.62;13.98;;;4.20;99.90;;;;;;1852619;76;21690;-78
2022/03/20 01:47:50;;;;;;;20.10;14.43;;;4.20;99.90;;;;;;1848950;77;21070;-80
2022/03/20 01:50:22;;;;;;;22.03;14.17;;;4.30;99.90;;;;;;1854225;76;21494;-79
2022/03/20 01:52:50;;;;;;;22.32;14.10;;;4.30;99.90;;;;;;1850568;76;21090;-81
2022/03/20 01:55:19;;;;;;;22.62;14.05;;;4.30;99.90;;;;;;1861785;76;21092;-80
2022/03/20 01:57:47;;;;;;;22.15;14.40;;;4.30;99.90;;;;;;1855330;76;21098;-79
2022/03/20 02:00:19;;;;;;;24.67;14.60;;;4.30;99.90;;;;;;1854340;76;21161;-80
2022/03/20 02:02:47;;;;;;;23.02;14.15;;;4.30;99.90;;;;;;1859468;76;21091;-81
2022/03/20 02:05:14;;;;;;;20.92;14.40;;;4.30;99.90;;;;;;1847040;76;21158;-80
2022/03/20 02:07:48;;;;;;;21.17;13.72;;;4.30;99.90;;;;;;1851039;77;21063;-79
2022/03/20 02:10:17;;;;;;;25.08;14.07;;;4.30;99.90;;;;;;1854367;76;21102;-80
2022/03/20 02:12:46;;;;;;;21.12;14.18;;;4.20;99.90;;;;;;1850951;76;21224;-79
2022/03/20 02:15:14;;;;;;;18.87;13.65;;;4.10;99.90;;;;;;1851788;76;21528;-81
2022/03/20 02:17:45;;;;;;;21.97;14.78;;;4.10;99.90;;;;;;1850084;76;21169;-80
2022/03/20 02:20:20;;;;;;;22.93;15.25;;;4.20;99.90;;;;;;1851187;76;21157;-79
2022/03/20 02:22:46;;;;;;;24.07;15.08;;;4.20;99.90;;;;;;1851527;76;21124;-81
2022/03/20 02:25:15;;;;;;;20.32;13.80;;;4.30;99.90;;;;;;1846743;76;21060;-79
2022/03/20 02:27:44;;;;;;;30.65;14.45;;;4.30;99.90;;;;;;1856188;76;21087;-79
2022/03/20 02:30:16;;;;;;;21.00;14.33;;;4.20;99.90;;;;;;1857075;76;21171;-79
2022/03/20 02:32:47;;;;;;;23.12;15.10;;;4.20;99.90;;;;;;1853860;76;21483;-79
2022/03/20 02:35:15;;;;;;;20.05;14.50;;;4.20;99.90;;;;;;1854672;76;21168;-80
2022/03/20 02:37:49;;;;;;;24.02;13.78;;;4.10;99.90;;;;;;1859770;77;21051;-79
2022/03/20 02:40:18;;;;;;;19.55;13.45;;;4.10;99.90;;;;;;1849442;76;21169;-80
2022/03/20 02:42:53;;;;;;;24.10;14.45;;;4.10;99.90;;;;;;1854819;76;21082;-79
2022/03/20 02:45:22;;;;;;;21.25;14.38;;;4.10;99.90;;;;;;1848156;77;21510;-81
2022/03/20 02:47:51;;;;;;;24.27;15.08;;;4.10;99.90;;;;;;1852627;76;21095;-81
2022/03/20 02:50:32;;;;;;;20.35;14.80;;;4.10;99.90;;;;;;1853397;76;21560;-81
2022/03/20 02:53:13;;;;;;;19.55;13.75;;;4.00;99.90;;;;;;1856205;76;21125;-80
2022/03/20 02:55:42;;;;;;;19.10;12.95;;;4.00;99.90;;;;;;1855367;76;21169;-79
2022/03/20 02:58:12;;;;;;;22.80;14.33;;;4.10;99.90;;;;;;1849930;77;21493;-79
2022/03/20 03:00:41;;;;;;;20.08;13.22;;;4.00;99.90;;;;;;1862827;76;21088;-80
2022/03/20 03:03:11;;;;;;;20.02;13.72;;;4.10;99.90;;;;;;1871526;76;21072;-79
2022/03/20 03:05:41;;;;;;;20.77;14.05;;;4.00;99.90;;;;;;1867383;76;21088;-80
2022/03/20 03:10:57;;;;;;;21.45;14.25;;;4.00;99.90;;;;;;1826695;76;21095;-79
2022/03/20 03:13:35;;;;;;;19.87;13.70;;;4.00;99.90;;;;;;1856720;76;21213;-79
2022/03/20 03:16:05;;;;;;;23.22;13.53;;;4.00;99.90;;;;;;1892741;75;21033;-80
2022/03/20 03:18:36;;;;;;;23.10;14.38;;;4.10;99.90;;;;;;1896981;74;21170;-79
2022/03/20 03:21:03;;;;;;;25.88;13.60;;;4.10;99.90;;;;;;1865651;76;21154;-80
2022/03/20 03:23:32;;;;;;;20.45;13.08;;;4.10;99.90;;;;;;1870312;75;21542;-81
2022/03/20 03:25:59;;;;;;;18.65;13.10;;;4.10;99.90;;;;;;1893055;75;21069;-79
2022/03/20 03:28:34;;;;;;;19.57;13.20;;;4.10;99.90;;;;;;1900274;74;21070;-80
2022/03/20 03:30:58;;;;;;;25.27;14.07;;;4.10;99.90;;;;;;1909647;75;21089;-80
2022/03/20 03:33:26;;;;;;;19.32;13.48;;;4.20;99.90;;;;;;1888714;75;21065;-79
2022/03/20 03:35:57;;;;;;;22.87;15.03;;;4.30;99.90;;;;;;1892624;75;21037;-79
2022/03/20 03:38:30;;;;;;;29.85;14.43;;;4.30;99.90;;;;;;1892408;74;21477;-79
2022/03/20 03:40:59;;;;;;;20.48;14.45;;;4.30;99.90;;;;;;1892934;75;21135;-80
2022/03/20 03:43:26;;;;;;;20.60;13.33;;;4.30;99.90;;;;;;1902291;75;21074;-80
2022/03/20 03:45:56;;;;;;;20.55;15.15;;;4.30;99.90;;;;;;1888279;75;21065;-80
2022/03/20 03:48:23;;;;;;;20.95;14.00;;;4.30;99.90;;;;;;1904528;74;21089;-80
2022/03/20 03:50:54;;;;;;;24.67;15.20;;;4.30;99.90;;;;;;1898212;75;21061;-79
2022/03/20 03:53:23;;;;;;;24.10;14.65;;;4.30;99.90;;;;;;1894395;75;21202;-80
2022/03/20 03:55:50;;;;;;;24.47;14.78;;;4.30;99.90;;;;;;1892467;75;21033;-79
2022/03/20 03:58:17;;;;;;;21.55;15.03;;;4.40;99.90;;;;;;1902956;74;21228;-79
2022/03/20 04:01:05;;;;;;;23.07;14.75;;;4.40;99.90;;;;;;1904221;74;21052;-80
2022/03/20 04:03:32;;;;;;;21.42;13.90;;;4.40;99.90;;;;;;1841463;75;21067;-80
2022/03/20 04:06:01;;;;;;;21.68;14.60;;;4.30;99.90;;;;;;1854606;75;21190;-80
2022/03/20 04:08:29;;;;;;;24.80;15.23;;;4.30;99.90;;;;;;1857083;76;21019;-81
2022/03/20 04:10:56;;;;;;;27.62;15.65;;;4.30;99.90;;;;;;1844250;75;21069;-80
2022/03/20 04:13:24;;;;;;;20.55;13.95;;;4.20;99.90;;;;;;1854599;75;21038;-80
2022/03/20 04:15:52;;;;;;;25.02;14.68;;;4.20;99.90;;;;;;1874494;75;21085;-80
2022/03/20 04:18:22;;;;;;;23.60;15.35;;;4.20;99.90;;;;;;1875234;76;21233;-80
2022/03/20 04:20:49;;;;;;;23.52;14.73;;;4.30;99.90;;;;;;1869407;75;21302;-80
2022/03/20 04:26:02;;;;;;;19.90;13.75;;;4.30;99.90;;;;;;1869691;75;21155;-80
2022/03/20 04:28:31;;;;;;;25.48;14.78;;;4.20;99.90;;;;;;1873942;75;21130;-80
2022/03/20 04:31:02;;;;;;;32.23;15.78;;;4.20;99.90;;;;;;1862332;76;21135;-80
2022/03/20 04:33:31;;;;;;;20.65;14.53;;;4.20;99.90;;;;;;1861593;75;21636;-79
2022/03/20 04:35:59;;;;;;;25.08;15.75;;;4.20;99.90;;;;;;1875622;75;21090;-81
2022/03/20 04:38:27;;;;;;;22.77;15.28;;;4.30;99.90;;;;;;1863545;75;21090;-80
2022/03/20 04:40:55;;;;;;;21.17;14.13;;;4.30;99.90;;;;;;1857493;76;21429;-80
2022/03/20 04:43:22;;;;;;;30.35;15.98;;;4.40;99.90;;;;;;1835701;76;21474;-80
2022/03/20 04:45:51;;;;;;;24.25;15.58;;;4.40;99.90;;;;;;1866192;75;21215;-81
2022/03/20 04:59:24;;;;;;;22.10;15.18;;;4.60;99.90;;;;;;1855122;75;21576;-81
2022/03/20 05:01:52;;;;;;;24.43;15.78;;;4.60;99.90;;;;;;1841242;76;21057;-79
2022/03/20 05:04:20;;;;;;;23.90;16.50;;;4.60;99.90;;;;;;1859125;76;21091;-79
2022/03/20 05:06:48;;;;;;;27.58;16.80;;;4.60;99.90;;;;;;1853026;76;21147;-79
2022/03/20 05:14:50;;;;;;;28.42;17.77;;;4.70;99.90;;;;;;1872811;76;21540;-80
2022/03/20 05:17:17;;;;;;;29.42;16.67;;;4.70;99.90;;;;;;1853211;76;21136;-82
2022/03/20 05:19:45;;;;;;;26.68;16.05;;;4.70;99.90;;;;;;1857968;75;21089;-78
2022/03/20 05:22:12;;;;;;;24.95;15.90;;;4.70;99.90;;;;;;1853078;77;21144;-79
2022/03/20 05:24:41;;;;;;;29.67;17.35;;;4.70;99.90;;;;;;1853111;77;21073;-79
2022/03/20 05:27:09;;;;;;;37.57;17.47;;;4.70;99.90;;;;;;1861962;76;21086;-79
2022/03/20 05:29:38;;;;;;;25.72;16.62;;;4.70;99.90;;;;;;1856077;76;21074;-78
2022/03/20 05:32:09;;;;;;;24.82;15.50;;;4.80;99.90;;;;;;1853097;75;21046;-79
2022/03/20 05:34:38;;;;;;;36.98;16.75;;;4.80;99.90;;;;;;1859519;75;21059;-80
2022/03/20 05:37:07;;;;;;;28.90;17.20;;;4.80;99.90;;;;;;1860633;76;21459;-79
2022/03/20 05:39:38;;;;;;;30.60;16.97;;;4.90;99.90;;;;;;1838407;76;21132;-80
2022/03/20 05:42:08;;;;;;;24.25;17.40;;;4.90;99.90;;;;;;1854674;77;21081;-80
2022/03/20 05:44:35;;;;;;;;;;;5.00;99.90;;;;;;1862458;76;21045;-80
2022/03/20 05:47:04;;;;;;;27.82;16.70;;;5.00;99.90;;;;;;1854775;77;20115;-80
2022/03/20 05:49:32;;;;;;;26.42;16.77;;;5.00;99.90;;;;;;1827379;76;21086;-80
2022/03/20 05:52:00;;;;;;;29.15;17.52;;;5.00;99.90;;;;;;1853487;75;21086;-80
2022/03/20 05:54:29;;;;;;;25.48;17.30;;;5.00;99.90;;;;;;1862134;76;21140;-79
2022/03/20 05:59:41;;;;;;;30.90;17.05;;;5.10;99.90;;;;;;1859047;76;21153;-79
2022/03/20 06:02:09;;;;;;;28.25;17.45;;;5.20;99.90;;;;;;1860692;76;21472;-80
2022/03/20 06:04:38;;;;;;;29.67;17.30;;;5.20;99.90;;;;;;1853539;76;21506;-79
2022/03/20 06:07:08;;;;;;;26.75;17.67;;;5.20;99.90;;;;;;1852988;76;21074;-79
2022/03/20 06:09:37;;;;;;;40.60;18.82;;;5.30;99.90;;;;;;1859037;76;21193;-79
2022/03/20 06:12:05;;;;;;;28.38;17.30;;;5.30;99.90;;;;;;1860528;76;21447;-79
2022/03/20 06:14:34;;;;;;;35.50;17.92;;;5.40;99.90;;;;;;1835216;77;21070;-79
2022/03/20 06:17:05;;;;;;;27.27;17.17;;;5.40;99.90;;;;;;1838558;76;21095;-80
2022/03/20 06:19:34;;;;;;;32.80;17.60;;;5.40;99.90;;;;;;1821720;76;21088;-79
2022/03/20 06:22:01;;;;;;;25.75;17.45;;;5.50;99.90;;;;;;1836150;76;21107;-80
2022/03/20 06:24:32;;;;;;;27.02;17.17;;;5.60;99.90;;;;;;1833642;76;21155;-79
2022/03/20 06:27:03;;;;;;;26.70;17.73;;;5.70;99.90;;;;;;1837032;76;21099;-80
2022/03/20 06:29:30;;;;;;;31.35;17.87;;;5.80;99.90;;;;;;1817819;76;21068;-79
2022/03/20 06:31:59;;;;;;;29.40;18.37;;;5.90;99.90;;;;;;1835686;76;21106;-78
2022/03/20 06:34:26;;;;;;;23.85;17.57;;;6.00;99.90;;;;;;1885322;74;21051;-80
2022/03/20 06:36:57;;;;;;;26.82;16.95;;;5.90;99.90;;;;;;1832056;77;21099;-80
2022/03/20 06:39:23;;;;;;;31.35;18.25;;;5.90;99.90;;;;;;1866861;75;21180;-79
2022/03/20 06:41:50;;;;;;;28.05;17.85;;;5.90;99.90;;;;;;1867498;75;21548;-80
2022/03/20 06:44:18;;;;;;;29.77;17.50;;;6.00;99.90;;;;;;1867410;75;21070;-78
2022/03/20 06:46:47;;;;;;;31.02;18.60;;;6.10;99.90;;;;;;1883997;74;21078;-78
2022/03/20 06:49:14;;;;;;;28.57;17.50;;;6.20;99.90;;;;;;1865646;74;21137;-80
2022/03/20 06:51:41;;;;;;;31.35;18.92;;;6.20;99.90;;;;;;1857057;74;21151;-77
2022/03/20 06:54:09;;;;;;;25.82;17.98;;;6.30;99.90;;;;;;1878727;75;21154;-79
2022/03/20 06:56:36;;;;;;;24.70;17.73;;;6.40;99.90;;;;;;1831935;77;21178;-79
2022/03/20 06:59:05;;;;;;;26.73;18.02;;;6.50;99.90;;;;;;1888126;76;21039;-81
2022/03/20 07:01:32;;;;;;;26.40;17.00;;;6.40;99.90;;;;;;1815739;78;21040;-81
2022/03/20 07:04:00;;;;;;;27.15;18.98;;;6.40;99.90;;;;;;1837300;76;21173;-81
2022/03/20 07:06:29;;;;;;;28.17;17.40;;;6.50;99.90;;;;;;1884608;75;21067;-82
2022/03/20 07:08:59;;;;;;;27.95;17.77;;;6.50;99.90;;;;;;1800893;77;21110;-76
2022/03/20 07:11:32;;;;;;;28.65;17.55;;;6.60;99.90;;;;;;1866552;75;21460;-76
2022/03/20 07:13:55;;;;;;;28.98;17.85;;;6.50;99.90;;;;;;1874352;74;21438;-74
2022/03/20 07:16:28;;;;;;;24.92;17.48;;;6.60;99.90;;;;;;1873009;75;21078;-74
2022/03/20 07:18:51;;;;;;;33.10;17.77;;;6.60;99.90;;;;;;1880009;74;21116;-75
2022/03/20 07:21:20;;;;;;;29.45;18.87;;;6.70;99.90;;;;;;1849176;74;21079;-75
2022/03/20 07:23:47;;;;;;;30.48;18.10;;;6.80;99.90;;;;;;1869838;76;21134;-74
2022/03/20 07:31:44;;;;;;;29.55;18.40;;;7.20;99.90;;;;;;1875527;74;21086;-75
2022/03/20 07:34:12;;;;;;;29.35;18.65;;;7.30;99.90;;;;;;1875979;74;21074;-75
2022/03/20 07:36:42;;;;;;;35.38;18.95;;;7.50;99.90;;;;;;1850689;75;21536;-76
2022/03/20 07:39:09;;;;;;;;;;;7.60;99.90;;;;;;1879856;74;21086;-75
2022/03/20 07:41:36;;;;;;;27.17;17.12;;;7.70;99.90;;;;;;1882168;74;20116;-75
2022/03/20 07:44:04;;;;;;;27.67;18.32;;;7.80;99.90;;;;;;1870169;75;21090;-74
2022/03/20 07:46:31;;;;;;;27.75;17.80;;;7.80;99.90;;;;;;1883724;76;21525;-75
2022/03/20 07:49:00;;;;;;;29.50;18.17;;;7.90;99.90;;;;;;1883853;76;21030;-75
2022/03/20 07:51:30;;;;;;;24.60;17.32;;;8.10;99.90;;;;;;1865175;75;21070;-79
2022/03/20 07:53:57;;;;;;;30.37;18.65;;;8.10;99.90;;;;;;1850640;74;21078;-75
2022/03/20 07:56:25;;;;;;;28.02;17.50;;;8.20;99.90;;;;;;1861463;75;21082;-77
2022/03/20 07:58:53;;;;;;;26.87;18.27;;;8.40;99.90;;;;;;1873934;76;21140;-76
2022/03/20 08:01:24;;;;;;;27.00;18.02;;;8.60;99.90;;;;;;1851963;74;21085;-75
2022/03/20 08:03:51;;;;;;;25.05;17.48;;;8.60;99.90;;;;;;1880157;75;21106;-76
2022/03/20 08:06:18;;;;;;;27.17;18.20;;;8.70;99.90;;;;;;1872082;74;21070;-76
2022/03/20 08:08:45;;;;;;;28.05;17.70;;;8.90;99.90;;;;;;1860872;74;21575;-75
2022/03/20 08:11:14;;;;;;;28.38;17.70;;;9.10;99.90;;;;;;1863967;76;21196;-73
2022/03/20 08:13:43;;;;;;;33.60;18.50;;;9.30;99.90;;;;;;1879262;75;21042;-75
2022/03/20 08:16:15;;;;;;;28.12;17.48;;;9.30;99.90;;;;;;1839509;77;21200;-74
2022/03/20 08:18:40;;;;;;;30.60;17.42;;;9.50;99.90;;;;;;1861555;76;21148;-74
2022/03/20 08:21:09;;;;;;;24.27;17.02;;;9.50;99.90;;;;;;1883812;75;21132;-75
2022/03/20 08:23:37;;;;;;;27.02;17.77;;;9.50;99.90;;;;;;1876116;76;21179;-75
2022/03/20 08:26:06;;;;;;;26.55;17.70;;;9.50;99.90;;;;;;1876828;75;21148;-75
2022/03/20 08:28:33;;;;;;;26.57;17.57;;;9.70;99.90;;;;;;1823742;76;21479;-74
2022/03/20 08:31:00;;;;;;;26.35;17.30;;;10.10;99.90;;;;;;1874940;76;21067;-75
2022/03/20 08:33:28;;;;;;;34.92;17.50;;;10.50;99.90;;;;;;1864217;75;21498;-75
2022/03/20 08:36:15;;;;;;;24.65;17.32;;;10.40;99.90;;;;;;1857068;75;21081;-75
2022/03/20 08:38:42;;;;;;;21.35;15.90;;;10.50;99.90;;;;;;1827300;78;21104;-76
2022/03/20 08:41:09;;;;;;;28.27;16.45;;;11.00;99.90;;;;;;1834631;77;21170;-75
2022/03/20 08:43:36;;;;;;;24.92;17.52;;;11.10;99.90;;;;;;1827514;77;21083;-75
2022/03/20 08:46:04;;;;;;;25.15;16.90;;;10.80;99.90;;;;;;1805119;79;21036;-74
2022/03/20 08:48:31;;;;;;;25.02;16.55;;;10.90;99.90;;;;;;1806416;78;21087;-76
2022/03/20 08:50:58;;;;;;;25.92;17.42;;;11.10;99.90;;;;;;1828817;77;21080;-75
2022/03/20 08:53:26;;;;;;;31.93;16.65;;;11.40;99.90;;;;;;1828880;78;21149;-75
2022/03/20 08:55:53;;;;;;;29.27;16.12;;;11.70;99.90;;;;;;1814537;77;21154;-75
2022/03/20 08:58:21;;;;;;;45.03;16.82;;;12.20;99.90;;;;;;1804622;78;21279;-75
2022/03/20 09:00:48;;;;;;;29.23;16.93;;;12.40;99.90;;;;;;1805145;78;21472;-75
2022/03/20 09:03:15;;;;;;;25.05;17.07;;;11.80;99.90;;;;;;1805893;78;21153;-75
2022/03/20 09:05:44;;;;;;;24.43;16.23;;;12.00;99.90;;;;;;1792738;79;21085;-75
2022/03/20 09:08:11;;;;;;;25.88;17.70;;;11.90;99.90;;;;;;1810446;78;21128;-75
2022/03/20 09:10:38;;;;;;;27.52;16.82;;;11.80;99.90;;;;;;1805768;78;21062;-75
2022/03/20 09:13:06;;;;;;;30.05;16.15;;;12.00;99.90;;;;;;1811324;78;21053;-74
2022/03/20 09:15:33;;;;;;;23.50;16.60;;;12.20;99.90;;;;;;1820022;77;21155;-74
2022/03/20 09:20:46;;;;;;;26.30;17.12;;;13.40;99.90;;;;;;1835078;77;21257;-76
2022/03/20 09:23:14;;;;;;;19.85;15.50;;;13.90;99.90;;;;;;1839593;77;21133;-70
2022/03/20 09:25:41;;;;;;;23.92;17.02;;;13.70;99.80;;;;;;1834904;77;21158;-76
2022/03/20 09:28:10;;;;;;;23.70;17.17;;;13.80;99.90;;;;;;1832197;77;21083;-76
2022/03/20 09:30:38;;;;;;;27.77;15.85;;;13.80;99.80;;;;;;1824485;77;21562;-76
2022/03/20 09:33:08;;;;;;;22.13;15.25;;;13.90;98.40;;;;;;1871879;76;21132;-75
2022/03/20 09:35:36;;;;;;;20.55;15.85;;;13.60;99.90;;;;;;1879167;76;21141;-77
2022/03/20 09:38:04;;;;;;;25.32;16.32;;;14.10;99.90;;;;;;1834058;77;21096;-79
2022/03/20 09:40:33;;;;;;;24.40;16.23;;;14.30;98.90;;;;;;1849904;76;21561;-76
2022/03/20 09:43:01;;;;;;;21.33;15.88;;;14.30;99.10;;;;;;1826566;77;21135;-75
2022/03/20 09:45:28;;;;;;;22.75;16.50;;;14.30;98.10;;;;;;1875312;76;21113;-75
2022/03/20 09:47:55;;;;;;;22.27;15.90;;;14.40;98.30;;;;;;1875360;75;21145;-75
2022/03/20 09:50:24;;;;;;;23.57;15.45;;;14.40;97.00;;;;;;1879626;75;21063;-76
2022/03/20 09:52:51;;;;;;;23.50;16.48;;;14.40;96.60;;;;;;1878895;76;21079;-76
2022/03/20 09:55:20;;;;;;;27.17;16.73;;;14.40;96.10;;;;;;1878876;76;21046;-77
2022/03/20 09:57:47;;;;;;;28.85;16.67;;;14.30;96.10;;;;;;1877614;76;21227;-77
2022/03/20 10:00:16;;;;;;;29.65;16.97;;;14.40;98.20;;;;;;1875409;76;21063;-76
2022/03/20 10:02:44;;;;;;;22.55;15.93;;;14.90;95.60;;;;;;1872476;76;21145;-76
2022/03/20 10:05:11;;;;;;;24.57;16.15;;;14.90;95.40;;;;;;1874268;76;21122;-76
2022/03/20 10:07:43;;;;;;;24.30;16.57;;;15.40;95.70;;;;;;1879178;76;21182;-74
2022/03/20 10:10:29;;;;;;;26.40;15.43;;;15.80;93.00;;;;;;1875964;75;21175;-77
2022/03/20 10:12:56;;;;;;;21.82;15.40;;;15.70;94.30;;;;;;1873075;75;21070;-76
2022/03/20 10:15:28;;;;;;;;;;;15.60;92.20;;;;;;1879939;76;21091;-76
2022/03/20 10:18:23;;;;;;;19.12;14.85;;;16.20;92.90;;;;;;1877556;76;20148;-77
2022/03/20 10:21:00;;;;;;;26.25;16.27;;;16.00;91.10;;;;;;1873618;76;21048;-75
2022/03/20 10:23:29;;;;;;;22.90;14.65;;;15.20;92.00;;;;;;1875956;76;21063;-75
2022/03/20 10:25:57;;;;;;;25.43;16.05;;;15.20;93.60;;;;;;1875203;76;21040;-76
2022/03/20 10:28:24;;;;;;;21.40;15.15;;;15.80;92.60;;;;;;1874388;76;21133;-77
2022/03/20 10:31:01;;;;;;;29.37;15.85;;;16.40;91.20;;;;;;1877073;76;21157;-74
2022/03/20 10:33:28;;;;;;;28.23;15.78;;;16.80;89.30;;;;;;1880344;75;21136;-76
2022/03/20 10:36:16;;;;;;;23.60;15.63;;;17.30;85.90;;;;;;1880608;75;21137;-76
2022/03/20 10:38:48;;;;;;;23.70;14.98;;;17.80;83.80;;;;;;1878995;75;21047;-75
2022/03/20 10:41:32;;;;;;;22.85;15.58;;;16.90;85.40;;;;;;1873874;76;21125;-75
2022/03/20 10:43:57;;;;;;;25.35;15.85;;;17.30;86.10;;;;;;1874691;76;21107;-75
2022/03/20 10:46:26;;;;;;;25.12;14.78;;;18.10;80.90;;;;;;1881971;76;21125;-75
2022/03/20 10:48:56;;;;;;;23.40;15.18;;;17.60;84.40;;;;;;1873390;76;21130;-75
2022/03/20 10:51:40;;;;;;;24.15;14.68;;;17.80;83.30;;;;;;1873409;75;21044;-74
2022/03/20 10:54:22;;;;;;;21.87;14.40;;;18.30;80.30;;;;;;1876796;76;21432;-75
2022/03/20 10:56:53;;;;;;;21.42;14.45;;;18.00;83.20;;;;;;1870560;75;21213;-74
2022/03/20 10:59:21;;;;;;;23.83;14.63;;;17.70;80.00;;;;;;1876649;76;21118;-75
2022/03/20 11:01:48;;;;;;;27.55;13.20;;;17.80;81.60;;;;;;1878301;75;21078;-74
2022/03/20 11:04:16;;;;;;;22.20;14.00;;;18.10;80.20;;;;;;1877805;75;21067;-75
2022/03/20 11:06:45;;;;;;;25.65;14.25;;;17.80;82.50;;;;;;1873361;76;21047;-76
2022/03/20 11:09:12;;;;;;;26.77;14.47;;;17.90;80.80;;;;;;1879037;76;21185;-75
2022/03/20 11:11:52;;;;;;;22.62;13.35;;;18.20;85.60;;;;;;1869859;75;21056;-75
2022/03/20 11:14:21;;;;;;;19.80;13.48;;;18.90;82.70;;;;;;1878238;75;21158;-75
2022/03/20 11:16:49;;;;;;;23.22;13.60;;;19.00;77.80;;;;;;1877616;76;21071;-75
2022/03/20 11:19:19;;;;;;;18.15;12.10;;;19.70;79.00;;;;;;1875755;76;21457;-74
2022/03/20 11:21:46;;;;;;;24.12;10.48;;;19.70;76.50;;;;;;1878469;75;21055;-75
2022/03/20 11:24:16;;;;;;;21.75;10.63;;;19.70;77.70;;;;;;1876083;76;21451;-75
2022/03/20 11:26:44;;;;;;;25.05;10.35;;;19.30;76.20;;;;;;1876203;75;21071;-75
2022/03/20 11:29:13;;;;;;;14.93;8.48;;;18.50;78.70;;;;;;1875685;75;21115;-74
2022/03/20 11:31:40;;;;;;;30.30;9.90;;;17.80;78.40;;;;;;1876271;76;21451;-74
2022/03/20 11:34:09;;;;;;;15.70;9.98;;;17.50;82.60;;;;;;1876697;76;21039;-75
2022/03/20 11:37:04;;;;;;;16.17;9.93;;;18.20;80.00;;;;;;1882020;76;21100;-75
2022/03/20 11:39:31;;;;;;;18.37;8.70;;;18.30;79.20;;;;;;1841674;76;21598;-73
2022/03/20 11:42:21;;;;;;;24.82;10.13;;;18.90;79.30;;;;;;1867713;76;21148;-74
2022/03/20 11:44:54;;;;;;;19.25;9.68;;;19.80;76.10;;;;;;1878787;75;21059;-76
2022/03/20 11:47:22;;;;;;;13.65;8.55;;;19.40;75.30;;;;;;1873259;75;21172;-75
2022/03/20 11:50:09;;;;;;;14.87;8.75;;;19.20;75.30;;;;;;1879395;75;21071;-74
2022/03/20 11:52:55;;;;;;;15.68;9.18;;;19.50;77.70;;;;;;1874073;76;21052;-75
2022/03/20 11:55:31;;;;;;;17.37;10.40;;;20.40;75.00;;;;;;1872864;75;21475;-74
2022/03/20 11:58:12;;;;;;;15.30;8.70;;;21.10;71.30;;;;;;1864105;76;21149;-74
2022/03/20 12:00:42;;;;;;;13.65;8.65;;;20.60;68.20;;;;;;1871246;75;21121;-74
2022/03/20 12:03:18;;;;;;;14.93;8.67;;;20.90;70.90;;;;;;1874830;76;21068;-73
2022/03/20 12:06:10;;;;;;;21.90;9.65;;;21.30;67.40;;;;;;1874173;76;21250;-74
2022/03/20 12:08:43;;;;;;;15.90;9.85;;;21.00;66.50;;;;;;1875240;76;21066;-73
2022/03/20 12:11:28;;;;;;;18.57;9.75;;;19.80;71.00;;;;;;1879716;76;21145;-74
2022/03/20 12:14:18;;;;;;;16.35;9.73;;;20.60;67.60;;;;;;1877872;76;21121;-74
2022/03/20 12:16:51;;;;;;;16.00;9.15;;;20.50;68.40;;;;;;1872606;76;21141;-74
2022/03/20 12:19:22;;;;;;;19.00;10.53;;;21.70;65.10;;;;;;1875343;76;21067;-75
2022/03/20 12:22:01;;;;;;;15.93;9.70;;;20.40;64.50;;;;;;1876415;76;21075;-73
2022/03/20 12:24:57;;;;;;;17.25;8.93;;;19.70;66.80;;;;;;1876453;76;21142;-75
2022/03/20 12:27:29;;;;;;;14.73;10.75;;;19.30;69.70;;;;;;1874760;76;21065;-74
2022/03/20 12:30:15;;;;;;;21.25;11.28;;;20.60;65.80;;;;;;1872295;76;21197;-74
2022/03/20 12:32:55;;;;;;;14.80;10.63;;;20.40;63.50;;;;;;1875045;76;21144;-72
2022/03/20 12:35:28;;;;;;;35.10;11.73;;;20.60;63.70;;;;;;1846269;76;21131;-72
2022/03/20 12:37:56;;;;;;;16.75;10.35;;;20.30;62.90;;;;;;1875608;76;21075;-73
2022/03/20 12:40:26;;;;;;;21.90;10.88;;;20.50;63.50;;;;;;1875373;76;21459;-73
2022/03/20 12:43:10;;;;;;;16.85;10.35;;;20.80;61.40;;;;;;1875971;76;21132;-71
2022/03/20 12:45:43;;;;;;;29.42;13.80;;;20.90;61.70;;;;;;1878723;75;21166;-72
2022/03/20 12:48:17;;;;;;;19.52;9.83;;;21.40;61.50;;;;;;1877429;76;21039;-72
2022/03/20 12:50:46;;;;;;;24.72;10.28;;;21.20;58.50;;;;;;1869648;76;21044;-73
2022/03/20 12:53:18;;;;;;;17.95;9.10;;;21.80;58.50;;;;;;1874071;75;21168;-73
2022/03/20 12:55:47;;;;;;;15.80;9.28;;;21.70;58.40;;;;;;1873050;76;21072;-73
2022/03/20 12:58:16;;;;;;;16.07;9.25;;;22.80;55.50;;;;;;1878254;75;21071;-74
2022/03/20 13:00:43;;;;;;;13.62;8.70;;;22.10;55.20;;;;;;1878946;76;21152;-73
2022/03/20 13:03:18;;;;;;;15.60;9.13;;;22.00;56.10;;;;;;1880451;76;21098;-71
2022/03/20 13:05:50;;;;;;;19.60;9.25;;;22.10;54.90;;;;;;1876636;75;21464;-72
2022/03/20 13:08:27;;;;;;;16.42;9.45;;;22.10;54.70;;;;;;1874655;76;21138;-73
2022/03/20 13:14:08;;;;;;;12.43;9.28;;;22.30;52.60;;;;;;1873009;75;21247;-73
2022/03/20 13:16:34;;;;;;;;;;;21.30;54.60;;;;;;1875613;76;21066;-74
2022/03/20 13:19:29;;;;;;;21.12;9.10;;;20.90;53.20;;;;;;1878601;76;20200;-74
2022/03/20 13:21:59;;;;;;;13.48;9.53;;;21.10;53.80;;;;;;1876790;76;21250;-74
2022/03/20 13:24:35;;;;;;;15.50;8.73;;;21.50;52.80;;;;;;1876368;76;21161;-73
2022/03/20 13:27:04;;;;;;;19.37;8.95;;;22.20;52.50;;;;;;1871586;76;21338;-73